createdAt,value
2023-02-07T00:01:56.734Z,14.55
2023-02-07T00:05:09.477Z,14.25
2023-02-07T00:08:21.849Z,16.27
2023-02-07T00:11:35.818Z,38.95
2023-02-07T00:14:49.451Z,17.33
2023-02-07T00:18:02.128Z,11.50
2023-02-07T00:21:16.486Z,11.90
2023-02-07T00:24:29.141Z,13.30
2023-02-07T00:27:41.511Z,11.20
2023-02-07T00:31:04.501Z,11.43
2023-02-07T00:34:16.962Z,10.85
2023-02-07T00:37:29.585Z,10.38
2023-02-07T00:40:42.044Z,11.93
2023-02-07T00:43:55.121Z,12.80
2023-02-07T00:47:08.420Z,10.25
2023-02-07T00:50:22.203Z,12.35
2023-02-07T00:53:34.642Z,10.45
2023-02-07T00:56:47.732Z,12.45
2023-02-07T01:00:00.133Z,11.18
2023-02-07T01:03:12.764Z,10.27
2023-02-07T01:06:25.140Z,11.12
2023-02-07T01:09:38.852Z,12.00
2023-02-07T01:12:52.147Z,11.68
2023-02-07T01:16:05.233Z,10.85
2023-02-07T01:19:17.728Z,11.65
2023-02-07T01:22:30.378Z,12.23
2023-02-07T01:25:44.211Z,10.50
2023-02-07T01:28:56.902Z,10.90
2023-02-07T01:32:10.275Z,9.98
2023-02-07T01:35:23.000Z,10.95
2023-02-07T01:38:35.358Z,11.38
2023-02-07T01:41:48.061Z,10.75
2023-02-07T01:45:06.028Z,11.40
2023-02-07T01:48:24.388Z,21.65
2023-02-07T01:51:36.887Z,10.65
2023-02-07T01:54:51.312Z,11.18
2023-02-07T01:58:04.531Z,10.98
2023-02-07T02:01:21.216Z,10.95
2023-02-07T02:04:33.880Z,12.05
2023-02-07T02:07:46.374Z,12.07
2023-02-07T02:11:17.734Z,12.10
2023-02-07T02:14:42.731Z,11.65
2023-02-07T02:18:20.637Z,12.18
2023-02-07T02:21:52.022Z,10.85
2023-02-07T02:25:22.752Z,10.98
2023-02-07T02:28:53.404Z,11.75
2023-02-07T02:32:29.585Z,11.63
2023-02-07T02:35:49.600Z,10.63
2023-02-07T02:39:09.694Z,10.98
2023-02-07T02:42:34.902Z,11.60
2023-02-07T02:45:53.589Z,10.85
2023-02-07T02:49:06.969Z,12.88
2023-02-07T02:52:19.382Z,11.45
2023-02-07T02:55:56.563Z,11.57
2023-02-07T02:59:37.820Z,13.68
2023-02-07T03:03:09.262Z,11.90
2023-02-07T03:06:24.707Z,12.02
2023-02-07T03:09:52.950Z,12.02
2023-02-07T03:13:24.518Z,12.07
2023-02-07T03:16:51.074Z,12.30
2023-02-07T03:20:12.693Z,12.75
2023-02-07T03:23:25.301Z,13.18
2023-02-07T03:26:38.492Z,11.52
2023-02-07T03:29:57.727Z,12.40
2023-02-07T03:33:11.902Z,12.85
2023-02-07T03:36:31.532Z,13.13
2023-02-07T03:39:43.908Z,12.20
2023-02-07T03:43:35.090Z,14.35
2023-02-07T03:46:49.257Z,12.23
2023-02-07T03:50:01.936Z,15.05
2023-02-07T03:53:14.244Z,17.02
2023-02-07T03:56:26.873Z,17.58
2023-02-07T03:59:39.279Z,17.02
2023-02-07T04:02:51.953Z,16.67
2023-02-07T04:06:04.897Z,15.80
2023-02-07T04:09:17.226Z,15.80
2023-02-07T04:12:32.968Z,17.42
2023-02-07T04:15:45.331Z,16.45
2023-02-07T04:18:58.030Z,16.83
2023-02-07T04:22:11.169Z,16.80
2023-02-07T04:25:23.842Z,19.35
2023-02-07T04:28:36.972Z,21.27
2023-02-07T04:31:49.663Z,20.85
2023-02-07T04:35:02.043Z,21.08
2023-02-07T04:38:14.716Z,19.60
2023-02-07T04:41:27.052Z,17.92
2023-02-07T04:44:39.708Z,17.75
2023-02-07T04:47:52.038Z,21.27
2023-02-07T04:51:05.800Z,20.40
2023-02-07T04:54:18.133Z,23.20
2023-02-07T04:57:30.758Z,22.25
2023-02-07T05:00:43.152Z,21.42
2023-02-07T05:03:55.777Z,23.00
2023-02-07T05:07:08.125Z,18.52
2023-02-07T05:10:20.716Z,18.65
2023-02-07T05:13:33.085Z,16.60
2023-02-07T05:16:45.774Z,18.00
2023-02-07T05:19:58.196Z,17.87
2023-02-07T05:23:10.916Z,18.33
2023-02-07T05:26:23.250Z,17.75
2023-02-07T05:29:37.127Z,19.33
2023-02-07T05:33:07.828Z,18.17
2023-02-07T05:36:20.503Z,20.00
2023-02-07T05:39:32.905Z,19.62
2023-02-07T05:42:45.523Z,22.13
2023-02-07T05:45:57.895Z,21.83
2023-02-07T05:49:10.528Z,23.45
2023-02-07T05:52:23.091Z,19.42
2023-02-07T05:55:35.861Z,18.92
2023-02-07T05:58:48.327Z,18.67
2023-02-07T06:02:03.817Z,19.83
2023-02-07T06:05:17.900Z,20.48
2023-02-07T06:08:30.228Z,19.00
2023-02-07T06:11:42.853Z,20.98
2023-02-07T06:14:55.188Z,20.17
2023-02-07T06:18:07.838Z,20.77
2023-02-07T06:21:20.215Z,21.67
2023-02-07T06:24:32.919Z,21.90
2023-02-07T06:27:45.271Z,20.55
2023-02-07T06:30:58.137Z,23.12
2023-02-07T06:34:10.569Z,22.27
2023-02-07T06:37:23.258Z,22.02
2023-02-07T06:40:35.570Z,55.85
2023-02-07T06:43:48.261Z,26.60
2023-02-07T06:47:01.142Z,20.88
2023-02-07T06:50:13.858Z,20.70
2023-02-07T06:53:26.305Z,20.50
2023-02-07T06:56:39.026Z,25.42
2023-02-07T06:59:51.443Z,36.65
2023-02-07T07:03:04.549Z,40.85
2023-02-07T07:06:16.970Z,38.33
2023-02-07T07:09:29.653Z,37.83
2023-02-07T07:12:42.029Z,36.28
2023-02-07T07:15:54.694Z,41.65
2023-02-07T07:19:07.060Z,37.70
2023-02-07T07:22:21.188Z,35.20
2023-02-07T07:25:33.810Z,32.13
2023-02-07T07:28:46.507Z,29.15
2023-02-07T07:31:58.873Z,26.08
2023-02-07T07:35:11.586Z,19.52
2023-02-07T07:38:24.310Z,21.12
2023-02-07T07:41:36.915Z,19.80
2023-02-07T07:44:49.279Z,22.20
2023-02-07T07:48:02.070Z,20.05
2023-02-07T07:51:14.488Z,17.00
2023-02-07T07:54:27.228Z,15.45
2023-02-07T07:57:40.299Z,14.45
2023-02-07T08:00:53.028Z,13.05
2023-02-07T08:04:05.932Z,12.90
2023-02-07T08:07:18.352Z,11.80
2023-02-07T08:10:31.009Z,12.15
2023-02-07T08:13:43.470Z,10.60
2023-02-07T08:16:56.129Z,11.07
2023-02-07T08:20:09.226Z,10.82
2023-02-07T08:23:22.146Z,10.00
2023-02-07T08:26:34.477Z,11.90
2023-02-07T08:29:47.106Z,10.52
2023-02-07T08:32:59.475Z,10.95
2023-02-07T08:36:12.700Z,10.88
2023-02-07T08:39:25.072Z,11.45
2023-02-07T08:42:37.757Z,11.35
2023-02-07T08:45:50.253Z,10.77
2023-02-07T08:49:02.919Z,11.55
2023-02-07T08:52:15.283Z,10.77
2023-02-07T08:55:27.945Z,11.25
2023-02-07T08:58:41.099Z,12.25
2023-02-07T09:01:53.884Z,11.45
2023-02-07T09:05:06.800Z,12.52
2023-02-07T09:08:20.166Z,12.05
2023-02-07T09:11:32.620Z,11.57
2023-02-07T09:14:45.361Z,11.85
2023-02-07T09:17:58.174Z,13.75
2023-02-07T09:21:10.862Z,12.80
2023-02-07T09:24:23.746Z,13.45
2023-02-07T09:27:36.426Z,12.57
2023-02-07T09:30:49.441Z,13.43
2023-02-07T09:34:04.970Z,14.25
2023-02-07T09:37:17.466Z,12.73
2023-02-07T09:40:30.268Z,12.00
2023-02-07T09:44:04.353Z,13.70
2023-02-07T09:47:19.594Z,13.68
2023-02-07T09:50:35.118Z,13.18
2023-02-07T09:53:54.491Z,14.00
2023-02-07T09:57:38.347Z,14.90
2023-02-07T10:00:57.237Z,13.30
2023-02-07T10:04:19.167Z,12.30
2023-02-07T10:07:32.348Z,12.75
2023-02-07T10:11:04.701Z,14.45
2023-02-07T10:14:26.322Z,12.37
2023-02-07T10:18:02.158Z,11.30
2023-02-07T10:21:39.318Z,12.13
2023-02-07T10:25:13.060Z,12.63
2023-02-07T10:28:32.456Z,12.48
2023-02-07T10:31:48.117Z,8.73
2023-02-07T10:35:03.304Z,9.45
2023-02-07T10:38:42.213Z,7.97
2023-02-07T10:41:57.463Z,10.30
2023-02-07T10:45:12.929Z,9.55
2023-02-07T10:48:25.307Z,9.20
2023-02-07T10:51:39.672Z,8.52
2023-02-07T10:54:57.299Z,8.93
2023-02-07T10:58:25.299Z,8.00
2023-02-07T11:04:52.016Z,5.72
2023-02-07T11:08:16.464Z,6.97
2023-02-07T11:11:33.111Z,7.28
2023-02-07T11:15:05.708Z,8.23
2023-02-07T11:18:37.707Z,8.90
2023-02-07T11:21:50.916Z,9.90
2023-02-07T11:25:05.175Z,10.45
2023-02-07T11:28:22.482Z,11.20
2023-02-07T11:31:36.784Z,10.13
2023-02-07T11:34:58.627Z,10.85
2023-02-07T11:38:16.284Z,9.45
2023-02-07T11:41:32.798Z,9.43
2023-02-07T11:44:46.131Z,9.63
2023-02-07T11:47:58.874Z,8.80
2023-02-07T11:51:15.828Z,8.50
2023-02-07T11:54:28.972Z,7.30
2023-02-07T11:57:41.852Z,8.02
2023-02-07T12:00:55.114Z,8.07
2023-02-07T12:04:25.556Z,7.15
2023-02-07T12:07:41.153Z,7.22
2023-02-07T12:11:04.609Z,7.32
2023-02-07T12:14:42.420Z,7.40
2023-02-07T12:18:02.580Z,7.30
2023-02-07T12:21:31.500Z,6.75
2023-02-07T12:24:49.100Z,6.35
2023-02-07T12:31:26.174Z,6.12
2023-02-07T12:34:52.265Z,7.03
2023-02-07T12:38:14.292Z,6.55
2023-02-07T12:41:30.404Z,6.57
2023-02-07T12:44:47.845Z,7.07
2023-02-07T12:48:09.912Z,7.57
2023-02-07T12:51:41.583Z,7.87
2023-02-07T12:55:12.777Z,8.60
2023-02-07T12:58:42.011Z,10.05
2023-02-07T13:02:37.452Z,9.55
2023-02-07T13:06:04.936Z,8.70
2023-02-07T13:09:48.229Z,10.55
2023-02-07T13:13:23.397Z,8.88
2023-02-07T13:16:49.823Z,10.27
2023-02-07T13:20:10.027Z,8.00
2023-02-07T13:23:24.350Z,8.65
2023-02-07T13:26:37.101Z,7.82
2023-02-07T13:29:49.796Z,7.40
2023-02-07T13:33:35.842Z,8.45
2023-02-07T13:36:55.285Z,7.40
2023-02-07T13:40:14.740Z,8.57
2023-02-07T13:43:44.935Z,7.40
2023-02-07T13:47:13.776Z,7.37
2023-02-07T13:50:46.835Z,7.60
2023-02-07T13:54:18.998Z,9.07
2023-02-07T13:57:52.654Z,7.53
2023-02-07T14:01:10.031Z,8.75
2023-02-07T14:07:36.096Z,8.48
2023-02-07T14:10:49.607Z,9.77
2023-02-07T14:14:26.781Z,11.12
2023-02-07T14:17:39.331Z,9.70
2023-02-07T14:21:02.282Z,9.25
2023-02-07T14:24:18.773Z,8.75
2023-02-07T14:27:41.613Z,10.50
2023-02-07T14:30:54.506Z,9.88
2023-02-07T14:34:11.819Z,9.50
2023-02-07T14:37:46.417Z,9.48
2023-02-07T14:41:10.749Z,9.93
2023-02-07T14:44:37.928Z,9.75
2023-02-07T14:47:50.742Z,9.07
2023-02-07T14:51:03.516Z,11.18
2023-02-07T14:54:29.630Z,10.38
2023-02-07T14:58:04.654Z,9.93
2023-02-07T15:01:18.044Z,9.32
2023-02-07T15:04:30.623Z,9.43
2023-02-07T15:07:47.194Z,9.82
2023-02-07T15:11:07.603Z,9.70
2023-02-07T15:14:28.115Z,11.65
2023-02-07T15:17:44.524Z,16.33
2023-02-07T15:20:58.553Z,16.58
2023-02-07T15:24:51.199Z,11.50
2023-02-07T15:28:26.683Z,11.07
2023-02-07T15:31:40.662Z,12.10
2023-02-07T15:34:54.709Z,10.23
2023-02-07T15:38:22.779Z,10.98
2023-02-07T15:41:35.118Z,12.40
2023-02-07T15:44:51.414Z,23.55
2023-02-07T15:48:09.767Z,28.98
2023-02-07T15:51:26.513Z,25.08
2023-02-07T15:54:40.875Z,20.40
2023-02-07T15:57:53.794Z,20.98
2023-02-07T16:01:07.494Z,20.23
2023-02-07T16:04:29.961Z,20.13
2023-02-07T16:07:42.615Z,20.10
2023-02-07T16:10:55.264Z,18.37
2023-02-07T16:14:25.492Z,24.05
2023-02-07T16:17:43.909Z,18.95
2023-02-07T16:20:56.284Z,27.50
2023-02-07T16:24:16.163Z,42.40
2023-02-07T16:27:31.776Z,74.87
2023-02-07T16:30:44.749Z,59.55
2023-02-07T16:33:57.136Z,47.15
2023-02-07T16:37:09.797Z,39.22
2023-02-07T16:40:26.671Z,41.40
2023-02-07T16:43:40.102Z,46.80
2023-02-07T16:46:52.652Z,47.10
2023-02-07T16:50:05.505Z,47.38
2023-02-07T16:53:17.929Z,52.70
2023-02-07T16:56:30.573Z,59.40
2023-02-07T16:59:43.043Z,59.40
2023-02-07T17:02:55.664Z,70.75
2023-02-07T17:06:16.398Z,71.10
2023-02-07T17:09:29.038Z,74.20
2023-02-07T17:12:43.150Z,77.25
2023-02-07T17:15:57.283Z,94.85
2023-02-07T17:19:18.383Z,88.32
2023-02-07T17:22:31.012Z,79.00
2023-02-07T17:25:43.916Z,43.45
2023-02-07T17:28:56.630Z,61.20
2023-02-07T17:32:09.587Z,63.72
2023-02-07T17:35:22.244Z,60.75
2023-02-07T17:38:34.637Z,60.58
2023-02-07T17:41:48.392Z,56.97
2023-02-07T17:45:00.788Z,60.05
2023-02-07T17:48:13.476Z,57.65
2023-02-07T17:51:26.651Z,59.55
2023-02-07T17:54:42.885Z,53.90
2023-02-07T17:57:55.229Z,84.85
2023-02-07T18:01:07.860Z,64.00
2023-02-07T18:04:20.559Z,39.10
2023-02-07T18:07:32.863Z,48.38
2023-02-07T18:10:45.672Z,36.63
2023-02-07T18:13:58.055Z,37.25
2023-02-07T18:17:10.716Z,57.13
2023-02-07T18:20:25.777Z,47.47
2023-02-07T18:23:38.724Z,52.65
2023-02-07T18:26:52.670Z,50.70
2023-02-07T18:30:05.992Z,53.30
2023-02-07T18:33:19.475Z,100.68
2023-02-07T18:36:40.228Z,67.97
2023-02-07T18:39:52.885Z,43.95
2023-02-07T18:43:05.706Z,36.20
2023-02-07T18:46:19.302Z,39.95
2023-02-07T18:49:33.869Z,33.13
2023-02-07T18:52:49.197Z,23.05
2023-02-07T18:56:05.985Z,22.60
2023-02-07T18:59:21.931Z,30.62
2023-02-07T19:02:34.643Z,33.78
2023-02-07T19:05:49.098Z,30.88
2023-02-07T19:09:01.753Z,35.85
2023-02-07T19:12:14.310Z,32.65
2023-02-07T19:15:26.974Z,74.50
2023-02-07T19:18:39.476Z,55.15
2023-02-07T19:21:52.144Z,37.10
2023-02-07T19:25:05.220Z,36.08
2023-02-07T19:28:18.892Z,44.80
2023-02-07T19:31:31.396Z,37.20
2023-02-07T19:34:44.087Z,28.73
2023-02-07T19:37:56.429Z,25.58
2023-02-07T19:41:09.091Z,33.30
2023-02-07T19:44:21.441Z,31.85
2023-02-07T19:47:34.071Z,30.33
2023-02-07T19:50:46.425Z,38.55
2023-02-07T19:53:59.111Z,35.92
2023-02-07T19:57:11.668Z,38.55
2023-02-07T20:00:24.272Z,29.75
2023-02-07T20:03:38.432Z,28.55
2023-02-07T20:06:50.804Z,26.67
2023-02-07T20:10:03.756Z,25.33
2023-02-07T20:13:16.141Z,25.23
2023-02-07T20:16:29.518Z,26.85
2023-02-07T20:19:41.911Z,28.05
2023-02-07T20:22:54.589Z,28.10
2023-02-07T20:26:08.714Z,27.70
2023-02-07T20:29:23.090Z,29.92
2023-02-07T20:32:35.524Z,29.37
2023-02-07T20:35:48.363Z,29.45
2023-02-07T20:39:00.816Z,28.10
2023-02-07T20:42:13.476Z,28.20
2023-02-07T20:45:25.824Z,25.23
2023-02-07T20:48:41.830Z,26.58
2023-02-07T20:51:54.653Z,31.52
2023-02-07T20:55:08.421Z,55.78
2023-02-07T20:58:20.739Z,51.63
2023-02-07T21:01:33.722Z,59.53
2023-02-07T21:04:46.038Z,53.13
2023-02-07T21:07:58.672Z,66.03
2023-02-07T21:11:11.233Z,61.33
2023-02-07T21:14:29.630Z,57.95
2023-02-07T21:17:41.989Z,77.57
2023-02-07T21:20:54.640Z,47.42
2023-02-07T21:24:07.399Z,41.92
2023-02-07T21:27:20.017Z,36.45
2023-02-07T21:30:33.698Z,45.97
2023-02-07T21:33:47.406Z,47.45
2023-02-07T21:36:59.800Z,43.67
2023-02-07T21:40:12.454Z,32.78
2023-02-07T21:43:24.820Z,41.83
2023-02-07T21:46:39.463Z,38.22
2023-02-07T21:49:51.806Z,36.17
2023-02-07T21:53:04.455Z,34.97
2023-02-07T21:56:18.478Z,32.05
2023-02-07T21:59:31.138Z,28.08
2023-02-07T22:02:43.465Z,25.60
2023-02-07T22:05:56.102Z,25.35
2023-02-07T22:09:08.772Z,25.15
2023-02-07T22:12:21.436Z,24.65
2023-02-07T22:15:34.323Z,25.35
2023-02-07T22:18:47.001Z,25.75
2023-02-07T22:21:59.500Z,25.60
2023-02-07T22:25:12.385Z,26.95
2023-02-07T22:28:24.819Z,25.90
2023-02-07T22:31:39.025Z,22.37
2023-02-07T22:34:51.417Z,20.23
2023-02-07T22:38:04.275Z,22.62
2023-02-07T22:41:16.888Z,22.25
2023-02-07T22:44:29.526Z,26.05
2023-02-07T22:47:41.875Z,26.75
2023-02-07T22:50:54.486Z,28.45
2023-02-07T22:54:08.008Z,27.23
2023-02-07T22:57:20.828Z,28.17
2023-02-07T23:00:33.283Z,26.85
2023-02-07T23:03:46.006Z,28.50
2023-02-07T23:06:58.411Z,26.70
2023-02-07T23:10:11.167Z,25.98
2023-02-07T23:13:23.577Z,23.50
2023-02-07T23:16:36.235Z,23.48
2023-02-07T23:19:48.599Z,20.48
2023-02-07T23:23:01.532Z,16.45
2023-02-07T23:26:15.299Z,17.08
2023-02-07T23:29:28.013Z,16.75
2023-02-07T23:32:40.925Z,15.85
2023-02-07T23:35:53.546Z,15.93
2023-02-07T23:39:05.892Z,15.13
2023-02-07T23:42:18.548Z,14.05
2023-02-07T23:45:30.905Z,14.20
2023-02-07T23:48:43.583Z,16.12
2023-02-07T23:51:55.945Z,14.38
2023-02-07T23:55:08.622Z,14.13
2023-02-07T23:58:21.605Z,14.77
